sensor_id;sensor_type;location;lat;lon;timestamp;temperature;humidity
10911;DHT22;5508;49.150;11.030;2023-12-22T00:00:04;3.20;99.70
10911;DHT22;5508;49.150;11.030;2023-12-22T00:03:05;3.20;99.90
10911;DHT22;5508;49.150;11.030;2023-12-22T00:06:06;3.10;99.90
10911;DHT22;5508;49.150;11.030;2023-12-22T00:09:06;3.10;99.90
10911;DHT22;5508;49.150;11.030;2023-12-22T00:12:07;3.00;99.90
10911;DHT22;5508;49.150;11.030;2023-12-22T00:15:08;3.00;99.90
10911;DHT22;5508;49.150;11.030;2023-12-22T00:18:08;2.90;99.90
10911;DHT22;5508;49.150;11.030;2023-12-22T00:21:10;2.80;99.90
10911;DHT22;5508;49.150;11.030;2023-12-22T00:24:11;2.70;99.90
10911;DHT22;5508;49.150;11.030;2023-12-22T00:27:12;2.70;99.90
10911;DHT22;5508;49.150;11.030;2023-12-22T00:30:12;2.50;99.90
10911;DHT22;5508;49.150;11.030;2023-12-22T00:33:13;2.40;99.90
10911;DHT22;5508;49.150;11.030;2023-12-22T00:36:13;2.40;99.90
10911;DHT22;5508;49.150;11.030;2023-12-22T00:39:14;2.30;99.90
10911;DHT22;5508;49.150;11.030;2023-12-22T00:42:15;2.30;99.90
10911;DHT22;5508;49.150;11.030;2023-12-22T00:45:15;2.20;99.90
10911;DHT22;5508;49.150;11.030;2023-12-22T00:48:16;2.30;99.90
10911;DHT22;5508;49.150;11.030;2023-12-22T00:51:16;2.20;99.90
10911;DHT22;5508;49.150;11.030;2023-12-22T00:54:17;2.20;99.90
10911;DHT22;5508;49.150;11.030;2023-12-22T00:57:18;2.30;99.90
10911;DHT22;5508;49.150;11.030;2023-12-22T01:00:18;2.30;99.90
10911;DHT22;5508;49.150;11.030;2023-12-22T01:03:19;2.20;99.90
10911;DHT22;5508;49.150;11.030;2023-12-22T01:06:19;2.20;99.90
10911;DHT22;5508;49.150;11.030;2023-12-22T01:09:20;2.20;99.90
10911;DHT22;5508;49.150;11.030;2023-12-22T01:12:21;2.20;99.90
10911;DHT22;5508;49.150;11.030;2023-12-22T01:15:21;2.20;99.90
10911;DHT22;5508;49.150;11.030;2023-12-22T01:18:23;2.20;99.90
10911;DHT22;5508;49.150;11.030;2023-12-22T01:21:25;2.20;99.90
10911;DHT22;5508;49.150;11.030;2023-12-22T01:24:26;2.20;99.90
10911;DHT22;5508;49.150;11.030;2023-12-22T01:27:26;2.20;99.90
10911;DHT22;5508;49.150;11.030;2023-12-22T01:30:27;2.20;99.90
10911;DHT22;5508;49.150;11.030;2023-12-22T01:33:28;2.20;99.90
10911;DHT22;5508;49.150;11.030;2023-12-22T01:36:29;2.20;99.90
10911;DHT22;5508;49.150;11.030;2023-12-22T01:39:30;2.30;99.90
10911;DHT22;5508;49.150;11.030;2023-12-22T01:42:31;2.30;99.90
10911;DHT22;5508;49.150;11.030;2023-12-22T01:45:31;2.30;99.90
10911;DHT22;5508;49.150;11.030;2023-12-22T01:48:32;2.30;99.90
10911;DHT22;5508;49.150;11.030;2023-12-22T01:51:34;2.30;99.90
10911;DHT22;5508;49.150;11.030;2023-12-22T01:54:36;2.30;99.90
10911;DHT22;5508;49.150;11.030;2023-12-22T01:57:37;2.40;99.90
10911;DHT22;5508;49.150;11.030;2023-12-22T02:00:38;2.40;99.90
10911;DHT22;5508;49.150;11.030;2023-12-22T02:03:39;2.40;99.90
10911;DHT22;5508;49.150;11.030;2023-12-22T02:06:40;2.50;99.90
10911;DHT22;5508;49.150;11.030;2023-12-22T02:09:41;2.50;99.90
10911;DHT22;5508;49.150;11.030;2023-12-22T02:12:42;2.40;99.90
10911;DHT22;5508;49.150;11.030;2023-12-22T02:15:43;2.40;99.90
10911;DHT22;5508;49.150;11.030;2023-12-22T02:18:46;2.50;99.90
10911;DHT22;5508;49.150;11.030;2023-12-22T02:22:07;2.50;99.90
10911;DHT22;5508;49.150;11.030;2023-12-22T02:25:07;2.60;99.90
10911;DHT22;5508;49.150;11.030;2023-12-22T02:28:10;2.50;99.90
10911;DHT22;5508;49.150;11.030;2023-12-22T02:31:18;2.60;99.90
10911;DHT22;5508;49.150;11.030;2023-12-22T02:34:21;2.60;99.90
10911;DHT22;5508;49.150;11.030;2023-12-22T02:37:25;2.60;99.90
10911;DHT22;5508;49.150;11.030;2023-12-22T02:40:27;2.70;99.90
10911;DHT22;5508;49.150;11.030;2023-12-22T02:43:28;2.60;99.90
10911;DHT22;5508;49.150;11.030;2023-12-22T02:46:29;2.60;99.90
10911;DHT22;5508;49.150;11.030;2023-12-22T02:49:29;2.50;99.90
10911;DHT22;5508;49.150;11.030;2023-12-22T02:52:30;2.50;99.90
10911;DHT22;5508;49.150;11.030;2023-12-22T02:55:32;2.40;99.90
10911;DHT22;5508;49.150;11.030;2023-12-22T02:58:33;2.30;99.90
10911;DHT22;5508;49.150;11.030;2023-12-22T03:01:34;2.20;99.90
10911;DHT22;5508;49.150;11.030;2023-12-22T03:04:35;2.20;99.90
10911;DHT22;5508;49.150;11.030;2023-12-22T03:07:35;2.20;99.90
10911;DHT22;5508;49.150;11.030;2023-12-22T03:10:36;2.20;99.90
10911;DHT22;5508;49.150;11.030;2023-12-22T03:13:36;2.20;99.90
10911;DHT22;5508;49.150;11.030;2023-12-22T03:16:37;2.20;99.90
10911;DHT22;5508;49.150;11.030;2023-12-22T03:19:38;2.20;99.90
10911;DHT22;5508;49.150;11.030;2023-12-22T03:22:39;2.20;99.90
10911;DHT22;5508;49.150;11.030;2023-12-22T03:25:40;2.30;99.90
10911;DHT22;5508;49.150;11.030;2023-12-22T03:28:40;2.30;99.90
10911;DHT22;5508;49.150;11.030;2023-12-22T03:31:41;2.40;99.90
10911;DHT22;5508;49.150;11.030;2023-12-22T03:34:41;2.40;99.90
10911;DHT22;5508;49.150;11.030;2023-12-22T03:37:42;2.40;99.90
10911;DHT22;5508;49.150;11.030;2023-12-22T03:40:43;2.50;99.90
10911;DHT22;5508;49.150;11.030;2023-12-22T03:43:43;2.40;99.90
10911;DHT22;5508;49.150;11.030;2023-12-22T03:46:44;2.40;99.90
10911;DHT22;5508;49.150;11.030;2023-12-22T03:49:44;1.90;99.90
10911;DHT22;5508;49.150;11.030;2023-12-22T03:52:45;1.80;99.90
10911;DHT22;5508;49.150;11.030;2023-12-22T03:55:45;1.80;99.90
10911;DHT22;5508;49.150;11.030;2023-12-22T03:58:46;1.90;99.90
10911;DHT22;5508;49.150;11.030;2023-12-22T04:01:53;1.90;99.90
10911;DHT22;5508;49.150;11.030;2023-12-22T04:04:55;1.90;99.90
10911;DHT22;5508;49.150;11.030;2023-12-22T04:07:56;1.90;99.90
10911;DHT22;5508;49.150;11.030;2023-12-22T04:10:56;1.90;99.90
10911;DHT22;5508;49.150;11.030;2023-12-22T04:13:57;1.90;99.90
10911;DHT22;5508;49.150;11.030;2023-12-22T04:16:57;1.80;99.90
10911;DHT22;5508;49.150;11.030;2023-12-22T04:19:58;1.80;99.90
10911;DHT22;5508;49.150;11.030;2023-12-22T04:22:58;1.90;99.90
10911;DHT22;5508;49.150;11.030;2023-12-22T04:25:59;1.80;99.90
10911;DHT22;5508;49.150;11.030;2023-12-22T04:29:00;1.90;99.90
10911;DHT22;5508;49.150;11.030;2023-12-22T04:32:00;1.80;99.90
10911;DHT22;5508;49.150;11.030;2023-12-22T04:35:01;1.80;99.90
10911;DHT22;5508;49.150;11.030;2023-12-22T04:38:02;1.90;99.90
10911;DHT22;5508;49.150;11.030;2023-12-22T04:41:02;1.90;99.90
10911;DHT22;5508;49.150;11.030;2023-12-22T04:44:03;2.00;99.90
10911;DHT22;5508;49.150;11.030;2023-12-22T04:47:04;2.00;99.90
10911;DHT22;5508;49.150;11.030;2023-12-22T04:50:04;2.10;99.90
10911;DHT22;5508;49.150;11.030;2023-12-22T04:53:05;2.10;99.90
10911;DHT22;5508;49.150;11.030;2023-12-22T04:56:06;2.10;99.90
10911;DHT22;5508;49.150;11.030;2023-12-22T04:59:07;2.20;99.90
10911;DHT22;5508;49.150;11.030;2023-12-22T05:02:08;2.20;99.90
10911;DHT22;5508;49.150;11.030;2023-12-22T05:05:09;2.20;99.90
10911;DHT22;5508;49.150;11.030;2023-12-22T05:08:10;2.30;99.90
10911;DHT22;5508;49.150;11.030;2023-12-22T05:11:10;2.20;99.90
10911;DHT22;5508;49.150;11.030;2023-12-22T05:14:11;2.20;99.90
10911;DHT22;5508;49.150;11.030;2023-12-22T05:17:11;2.10;99.90
10911;DHT22;5508;49.150;11.030;2023-12-22T05:20:12;2.00;99.90
10911;DHT22;5508;49.150;11.030;2023-12-22T05:23:15;1.90;99.90
10911;DHT22;5508;49.150;11.030;2023-12-22T05:26:17;1.80;99.90
10911;DHT22;5508;49.150;11.030;2023-12-22T05:29:18;1.70;99.90
10911;DHT22;5508;49.150;11.030;2023-12-22T05:32:20;1.60;99.90
10911;DHT22;5508;49.150;11.030;2023-12-22T05:35:20;1.50;99.90
10911;DHT22;5508;49.150;11.030;2023-12-22T05:38:21;1.40;99.90
10911;DHT22;5508;49.150;11.030;2023-12-22T05:41:22;1.20;99.90
10911;DHT22;5508;49.150;11.030;2023-12-22T05:44:22;1.20;99.90
10911;DHT22;5508;49.150;11.030;2023-12-22T05:47:24;1.20;99.90
10911;DHT22;5508;49.150;11.030;2023-12-22T05:50:25;1.10;99.90
10911;DHT22;5508;49.150;11.030;2023-12-22T05:53:26;1.00;99.90
10911;DHT22;5508;49.150;11.030;2023-12-22T05:56:27;1.00;99.90
10911;DHT22;5508;49.150;11.030;2023-12-22T05:59:27;1.10;99.90
10911;DHT22;5508;49.150;11.030;2023-12-22T06:02:28;1.30;99.90
10911;DHT22;5508;49.150;11.030;2023-12-22T06:05:28;1.40;99.90
10911;DHT22;5508;49.150;11.030;2023-12-22T06:08:29;1.40;99.90
10911;DHT22;5508;49.150;11.030;2023-12-22T06:11:29;1.50;99.90
10911;DHT22;5508;49.150;11.030;2023-12-22T06:14:31;1.60;99.90
10911;DHT22;5508;49.150;11.030;2023-12-22T06:17:32;1.60;99.90
10911;DHT22;5508;49.150;11.030;2023-12-22T06:20:32;1.60;99.90
10911;DHT22;5508;49.150;11.030;2023-12-22T06:23:33;1.60;99.90
10911;DHT22;5508;49.150;11.030;2023-12-22T06:26:34;1.80;99.90
10911;DHT22;5508;49.150;11.030;2023-12-22T06:29:34;1.90;99.90
10911;DHT22;5508;49.150;11.030;2023-12-22T06:32:35;2.10;99.90
10911;DHT22;5508;49.150;11.030;2023-12-22T06:35:40;2.30;99.90
10911;DHT22;5508;49.150;11.030;2023-12-22T06:38:45;2.50;99.90
10911;DHT22;5508;49.150;11.030;2023-12-22T06:41:46;2.50;99.90
10911;DHT22;5508;49.150;11.030;2023-12-22T06:44:46;2.70;99.90
10911;DHT22;5508;49.150;11.030;2023-12-22T06:47:47;2.60;99.90
10911;DHT22;5508;49.150;11.030;2023-12-22T06:50:47;2.60;99.90
10911;DHT22;5508;49.150;11.030;2023-12-22T06:53:48;2.50;99.90
10911;DHT22;5508;49.150;11.030;2023-12-22T06:56:49;2.50;99.90
10911;DHT22;5508;49.150;11.030;2023-12-22T06:59:50;2.50;99.90
10911;DHT22;5508;49.150;11.030;2023-12-22T07:02:50;2.50;99.90
10911;DHT22;5508;49.150;11.030;2023-12-22T07:05:51;2.70;99.90
10911;DHT22;5508;49.150;11.030;2023-12-22T07:12:11;2.70;99.90
10911;DHT22;5508;49.150;11.030;2023-12-22T07:15:12;2.60;99.90
10911;DHT22;5508;49.150;11.030;2023-12-22T07:18:13;2.70;99.90
10911;DHT22;5508;49.150;11.030;2023-12-22T07:21:16;2.80;99.90
10911;DHT22;5508;49.150;11.030;2023-12-22T07:24:18;2.80;99.90
10911;DHT22;5508;49.150;11.030;2023-12-22T07:27:19;2.90;99.90
10911;DHT22;5508;49.150;11.030;2023-12-22T07:30:20;2.80;99.90
10911;DHT22;5508;49.150;11.030;2023-12-22T07:33:20;2.80;99.90
10911;DHT22;5508;49.150;11.030;2023-12-22T07:36:21;2.90;99.90
10911;DHT22;5508;49.150;11.030;2023-12-22T07:39:21;2.90;99.90
10911;DHT22;5508;49.150;11.030;2023-12-22T07:42:22;3.00;99.90
10911;DHT22;5508;49.150;11.030;2023-12-22T07:45:23;3.00;99.90
10911;DHT22;5508;49.150;11.030;2023-12-22T07:48:24;3.10;99.90
10911;DHT22;5508;49.150;11.030;2023-12-22T07:51:24;3.10;99.90
10911;DHT22;5508;49.150;11.030;2023-12-22T07:54:25;3.10;99.90
10911;DHT22;5508;49.150;11.030;2023-12-22T07:57:26;3.20;99.90
10911;DHT22;5508;49.150;11.030;2023-12-22T08:00:26;3.20;99.90
10911;DHT22;5508;49.150;11.030;2023-12-22T08:03:32;3.10;99.90
10911;DHT22;5508;49.150;11.030;2023-12-22T08:06:32;3.20;99.90
10911;DHT22;5508;49.150;11.030;2023-12-22T08:09:33;3.20;99.90
10911;DHT22;5508;49.150;11.030;2023-12-22T08:12:34;3.20;99.90
10911;DHT22;5508;49.150;11.030;2023-12-22T08:15:35;3.20;99.90
10911;DHT22;5508;49.150;11.030;2023-12-22T08:18:36;3.30;99.90
10911;DHT22;5508;49.150;11.030;2023-12-22T08:21:37;3.40;99.90
10911;DHT22;5508;49.150;11.030;2023-12-22T08:24:37;3.40;99.90
10911;DHT22;5508;49.150;11.030;2023-12-22T08:27:38;3.50;99.90
10911;DHT22;5508;49.150;11.030;2023-12-22T08:30:38;3.60;99.90
10911;DHT22;5508;49.150;11.030;2023-12-22T08:33:39;3.70;99.90
10911;DHT22;5508;49.150;11.030;2023-12-22T08:36:41;3.80;99.90
10911;DHT22;5508;49.150;11.030;2023-12-22T08:39:43;4.00;99.90
10911;DHT22;5508;49.150;11.030;2023-12-22T08:42:43;4.10;99.90
10911;DHT22;5508;49.150;11.030;2023-12-22T08:45:44;4.10;99.90
10911;DHT22;5508;49.150;11.030;2023-12-22T08:48:44;4.10;99.90
10911;DHT22;5508;49.150;11.030;2023-12-22T08:51:45;4.20;99.90
10911;DHT22;5508;49.150;11.030;2023-12-22T08:54:45;4.20;99.90
10911;DHT22;5508;49.150;11.030;2023-12-22T08:57:46;4.20;99.90
10911;DHT22;5508;49.150;11.030;2023-12-22T09:00:47;4.20;99.90
10911;DHT22;5508;49.150;11.030;2023-12-22T09:03:48;4.30;99.90
10911;DHT22;5508;49.150;11.030;2023-12-22T09:06:49;4.40;99.40
10911;DHT22;5508;49.150;11.030;2023-12-22T09:09:50;4.40;99.80
10911;DHT22;5508;49.150;11.030;2023-12-22T09:12:50;4.50;98.90
10911;DHT22;5508;49.150;11.030;2023-12-22T09:15:51;4.50;99.90
10911;DHT22;5508;49.150;11.030;2023-12-22T09:18:52;4.50;99.90
10911;DHT22;5508;49.150;11.030;2023-12-22T09:21:52;4.40;99.90
10911;DHT22;5508;49.150;11.030;2023-12-22T09:24:53;4.30;99.90
10911;DHT22;5508;49.150;11.030;2023-12-22T09:27:53;4.20;99.90
10911;DHT22;5508;49.150;11.030;2023-12-22T09:30:54;4.20;99.90
10911;DHT22;5508;49.150;11.030;2023-12-22T09:33:55;4.30;99.90
10911;DHT22;5508;49.150;11.030;2023-12-22T09:36:56;4.30;99.90
10911;DHT22;5508;49.150;11.030;2023-12-22T09:39:56;4.30;99.90
10911;DHT22;5508;49.150;11.030;2023-12-22T09:42:58;4.40;99.90
10911;DHT22;5508;49.150;11.030;2023-12-22T09:45:58;4.40;99.90
10911;DHT22;5508;49.150;11.030;2023-12-22T09:49:00;4.40;99.90
10911;DHT22;5508;49.150;11.030;2023-12-22T09:52:01;4.40;99.90
10911;DHT22;5508;49.150;11.030;2023-12-22T09:55:04;4.50;99.90
10911;DHT22;5508;49.150;11.030;2023-12-22T09:58:06;4.50;99.90
10911;DHT22;5508;49.150;11.030;2023-12-22T10:01:07;4.60;99.90
10911;DHT22;5508;49.150;11.030;2023-12-22T10:04:09;4.60;99.90
10911;DHT22;5508;49.150;11.030;2023-12-22T10:07:11;4.70;99.90
10911;DHT22;5508;49.150;11.030;2023-12-22T10:10:15;4.90;99.90
10911;DHT22;5508;49.150;11.030;2023-12-22T10:13:17;5.00;99.90
10911;DHT22;5508;49.150;11.030;2023-12-22T10:16:18;5.00;99.90
10911;DHT22;5508;49.150;11.030;2023-12-22T10:19:19;5.20;99.90
10911;DHT22;5508;49.150;11.030;2023-12-22T10:22:20;5.40;99.90
10911;DHT22;5508;49.150;11.030;2023-12-22T10:25:28;5.40;99.90
10911;DHT22;5508;49.150;11.030;2023-12-22T10:28:32;5.50;98.30
10911;DHT22;5508;49.150;11.030;2023-12-22T10:31:42;5.40;96.50
10911;DHT22;5508;49.150;11.030;2023-12-22T10:34:43;5.50;96.80
10911;DHT22;5508;49.150;11.030;2023-12-22T10:37:45;5.40;97.10
10911;DHT22;5508;49.150;11.030;2023-12-22T10:40:47;5.40;95.90
10911;DHT22;5508;49.150;11.030;2023-12-22T10:43:50;5.40;97.20
10911;DHT22;5508;49.150;11.030;2023-12-22T10:46:51;5.30;98.50
10911;DHT22;5508;49.150;11.030;2023-12-22T10:49:53;5.10;99.50
10911;DHT22;5508;49.150;11.030;2023-12-22T10:52:54;5.10;99.90
10911;DHT22;5508;49.150;11.030;2023-12-22T10:55:54;4.80;99.20
10911;DHT22;5508;49.150;11.030;2023-12-22T10:58:56;4.70;99.90
10911;DHT22;5508;49.150;11.030;2023-12-22T11:01:59;4.50;99.90
10911;DHT22;5508;49.150;11.030;2023-12-22T11:05:04;4.40;99.90
10911;DHT22;5508;49.150;11.030;2023-12-22T11:08:10;4.40;99.90
10911;DHT22;5508;49.150;11.030;2023-12-22T11:11:20;4.30;99.90
10911;DHT22;5508;49.150;11.030;2023-12-22T11:14:21;4.30;99.90
10911;DHT22;5508;49.150;11.030;2023-12-22T11:17:22;4.30;99.90
10911;DHT22;5508;49.150;11.030;2023-12-22T11:20:24;4.40;99.90
10911;DHT22;5508;49.150;11.030;2023-12-22T11:23:27;4.50;99.90
10911;DHT22;5508;49.150;11.030;2023-12-22T11:26:28;4.50;99.90
10911;DHT22;5508;49.150;11.030;2023-12-22T11:29:30;4.60;99.90
10911;DHT22;5508;49.150;11.030;2023-12-22T11:32:32;4.60;99.90
10911;DHT22;5508;49.150;11.030;2023-12-22T11:35:34;4.60;99.90
10911;DHT22;5508;49.150;11.030;2023-12-22T11:38:35;4.70;99.90
10911;DHT22;5508;49.150;11.030;2023-12-22T11:41:38;4.80;99.90
10911;DHT22;5508;49.150;11.030;2023-12-22T11:44:39;4.80;99.90
10911;DHT22;5508;49.150;11.030;2023-12-22T11:47:40;4.70;99.90
10911;DHT22;5508;49.150;11.030;2023-12-22T11:50:41;4.70;99.90
10911;DHT22;5508;49.150;11.030;2023-12-22T11:53:43;4.80;99.90
10911;DHT22;5508;49.150;11.030;2023-12-22T11:56:44;4.80;99.90
10911;DHT22;5508;49.150;11.030;2023-12-22T11:59:45;4.80;99.90
10911;DHT22;5508;49.150;11.030;2023-12-22T12:02:54;4.80;99.90
10911;DHT22;5508;49.150;11.030;2023-12-22T12:06:14;4.90;99.90
10911;DHT22;5508;49.150;11.030;2023-12-22T12:09:15;4.90;99.90
10911;DHT22;5508;49.150;11.030;2023-12-22T12:12:36;4.90;99.90
10911;DHT22;5508;49.150;11.030;2023-12-22T12:15:38;5.00;99.90
10911;DHT22;5508;49.150;11.030;2023-12-22T12:18:39;5.00;99.90
10911;DHT22;5508;49.150;11.030;2023-12-22T12:21:40;5.10;99.90
10911;DHT22;5508;49.150;11.030;2023-12-22T12:24:41;5.10;99.90
10911;DHT22;5508;49.150;11.030;2023-12-22T12:27:46;5.20;99.90
10911;DHT22;5508;49.150;11.030;2023-12-22T12:30:49;5.20;99.90
10911;DHT22;5508;49.150;11.030;2023-12-22T12:33:50;5.30;99.90
10911;DHT22;5508;49.150;11.030;2023-12-22T12:36:52;5.30;99.90
10911;DHT22;5508;49.150;11.030;2023-12-22T12:39:57;5.30;99.90
10911;DHT22;5508;49.150;11.030;2023-12-22T12:43:00;5.30;99.90
10911;DHT22;5508;49.150;11.030;2023-12-22T12:46:05;5.40;99.90
10911;DHT22;5508;49.150;11.030;2023-12-22T12:49:07;5.40;99.90
10911;DHT22;5508;49.150;11.030;2023-12-22T12:52:12;5.40;99.90
10911;DHT22;5508;49.150;11.030;2023-12-22T12:55:13;5.40;99.90
10911;DHT22;5508;49.150;11.030;2023-12-22T12:58:14;5.30;99.90
10911;DHT22;5508;49.150;11.030;2023-12-22T13:01:15;5.40;99.90
10911;DHT22;5508;49.150;11.030;2023-12-22T13:04:16;5.40;99.90
10911;DHT22;5508;49.150;11.030;2023-12-22T13:07:24;5.40;99.90
10911;DHT22;5508;49.150;11.030;2023-12-22T13:10:25;5.40;99.90
10911;DHT22;5508;49.150;11.030;2023-12-22T13:13:26;5.50;99.90
10911;DHT22;5508;49.150;11.030;2023-12-22T13:16:27;5.50;99.90
10911;DHT22;5508;49.150;11.030;2023-12-22T13:19:30;5.60;99.90
10911;DHT22;5508;49.150;11.030;2023-12-22T13:22:30;5.50;99.90
10911;DHT22;5508;49.150;11.030;2023-12-22T13:25:40;5.50;99.90
10911;DHT22;5508;49.150;11.030;2023-12-22T13:28:41;5.60;99.90
10911;DHT22;5508;49.150;11.030;2023-12-22T13:31:42;5.60;99.90
10911;DHT22;5508;49.150;11.030;2023-12-22T13:34:55;5.60;99.90
10911;DHT22;5508;49.150;11.030;2023-12-22T13:37:56;5.50;99.90
10911;DHT22;5508;49.150;11.030;2023-12-22T13:40:57;5.50;99.90
10911;DHT22;5508;49.150;11.030;2023-12-22T13:43:58;5.50;99.90
10911;DHT22;5508;49.150;11.030;2023-12-22T13:47:03;5.50;99.90
10911;DHT22;5508;49.150;11.030;2023-12-22T13:50:13;5.40;99.90
10911;DHT22;5508;49.150;11.030;2023-12-22T13:53:14;5.40;99.90
10911;DHT22;5508;49.150;11.030;2023-12-22T13:56:16;5.40;99.90
10911;DHT22;5508;49.150;11.030;2023-12-22T13:59:16;5.40;99.90
10911;DHT22;5508;49.150;11.030;2023-12-22T14:02:19;5.30;99.90
10911;DHT22;5508;49.150;11.030;2023-12-22T14:05:19;5.30;99.90
10911;DHT22;5508;49.150;11.030;2023-12-22T14:08:20;5.30;99.90
10911;DHT22;5508;49.150;11.030;2023-12-22T14:11:21;5.20;99.90
10911;DHT22;5508;49.150;11.030;2023-12-22T14:14:22;5.30;99.90
10911;DHT22;5508;49.150;11.030;2023-12-22T14:17:22;5.30;99.90
10911;DHT22;5508;49.150;11.030;2023-12-22T14:20:23;5.40;99.90
10911;DHT22;5508;49.150;11.030;2023-12-22T14:23:23;5.40;99.90
10911;DHT22;5508;49.150;11.030;2023-12-22T14:26:24;5.40;99.90
10911;DHT22;5508;49.150;11.030;2023-12-22T14:29:25;5.40;99.90
10911;DHT22;5508;49.150;11.030;2023-12-22T14:32:25;5.50;99.90
10911;DHT22;5508;49.150;11.030;2023-12-22T14:35:26;5.50;99.90
10911;DHT22;5508;49.150;11.030;2023-12-22T14:38:27;5.60;99.90
10911;DHT22;5508;49.150;11.030;2023-12-22T14:41:27;5.60;99.90
10911;DHT22;5508;49.150;11.030;2023-12-22T14:44:28;5.70;99.90
10911;DHT22;5508;49.150;11.030;2023-12-22T14:47:28;5.80;99.90
10911;DHT22;5508;49.150;11.030;2023-12-22T14:50:30;5.80;99.90
10911;DHT22;5508;49.150;11.030;2023-12-22T14:53:31;5.80;99.90
10911;DHT22;5508;49.150;11.030;2023-12-22T14:56:32;5.90;99.90
10911;DHT22;5508;49.150;11.030;2023-12-22T14:59:33;5.90;99.90
10911;DHT22;5508;49.150;11.030;2023-12-22T15:02:33;6.00;99.90
10911;DHT22;5508;49.150;11.030;2023-12-22T15:05:34;6.10;99.90
10911;DHT22;5508;49.150;11.030;2023-12-22T15:08:35;6.20;99.90
10911;DHT22;5508;49.150;11.030;2023-12-22T15:11:45;6.30;99.90
10911;DHT22;5508;49.150;11.030;2023-12-22T15:14:46;6.20;99.90
10911;DHT22;5508;49.150;11.030;2023-12-22T15:17:47;6.30;99.90
10911;DHT22;5508;49.150;11.030;2023-12-22T15:20:49;6.30;99.90
10911;DHT22;5508;49.150;11.030;2023-12-22T15:23:51;6.20;99.90
10911;DHT22;5508;49.150;11.030;2023-12-22T15:26:52;6.20;99.90
10911;DHT22;5508;49.150;11.030;2023-12-22T15:29:52;5.80;99.90
10911;DHT22;5508;49.150;11.030;2023-12-22T15:32:53;5.40;99.90
10911;DHT22;5508;49.150;11.030;2023-12-22T15:35:54;5.00;99.90
10911;DHT22;5508;49.150;11.030;2023-12-22T15:38:55;5.00;99.90
10911;DHT22;5508;49.150;11.030;2023-12-22T15:41:55;5.00;99.90
10911;DHT22;5508;49.150;11.030;2023-12-22T15:44:56;5.10;99.90
10911;DHT22;5508;49.150;11.030;2023-12-22T15:47:57;5.20;99.90
10911;DHT22;5508;49.150;11.030;2023-12-22T15:50:57;5.20;99.90
10911;DHT22;5508;49.150;11.030;2023-12-22T15:53:58;5.40;99.90
10911;DHT22;5508;49.150;11.030;2023-12-22T15:56:59;5.50;99.90
10911;DHT22;5508;49.150;11.030;2023-12-22T15:59:59;5.80;99.90
10911;DHT22;5508;49.150;11.030;2023-12-22T16:03:00;6.00;99.90
10911;DHT22;5508;49.150;11.030;2023-12-22T16:06:04;6.10;99.90
10911;DHT22;5508;49.150;11.030;2023-12-22T16:09:04;6.20;99.90
10911;DHT22;5508;49.150;11.030;2023-12-22T16:12:05;6.20;99.90
10911;DHT22;5508;49.150;11.030;2023-12-22T16:15:08;6.30;99.90
10911;DHT22;5508;49.150;11.030;2023-12-22T16:18:09;6.30;99.90
10911;DHT22;5508;49.150;11.030;2023-12-22T16:21:09;6.40;99.90
10911;DHT22;5508;49.150;11.030;2023-12-22T16:24:10;6.40;99.90
10911;DHT22;5508;49.150;11.030;2023-12-22T16:27:11;6.40;99.90
10911;DHT22;5508;49.150;11.030;2023-12-22T16:30:11;6.40;99.90
10911;DHT22;5508;49.150;11.030;2023-12-22T16:33:15;6.40;99.90
10911;DHT22;5508;49.150;11.030;2023-12-22T16:36:16;6.40;99.90
10911;DHT22;5508;49.150;11.030;2023-12-22T16:39:17;6.40;99.90
10911;DHT22;5508;49.150;11.030;2023-12-22T16:42:17;6.40;99.90
10911;DHT22;5508;49.150;11.030;2023-12-22T16:45:20;6.40;99.90
10911;DHT22;5508;49.150;11.030;2023-12-22T16:48:21;6.40;99.90
10911;DHT22;5508;49.150;11.030;2023-12-22T16:51:21;6.50;99.90
10911;DHT22;5508;49.150;11.030;2023-12-22T16:54:22;6.50;99.90
10911;DHT22;5508;49.150;11.030;2023-12-22T16:57:23;6.50;99.90
10911;DHT22;5508;49.150;11.030;2023-12-22T17:00:23;6.50;99.90
10911;DHT22;5508;49.150;11.030;2023-12-22T17:03:25;6.70;99.90
10911;DHT22;5508;49.150;11.030;2023-12-22T17:06:26;6.80;99.90
10911;DHT22;5508;49.150;11.030;2023-12-22T17:09:26;6.70;99.90
10911;DHT22;5508;49.150;11.030;2023-12-22T17:12:27;6.70;99.90
10911;DHT22;5508;49.150;11.030;2023-12-22T17:15:27;6.70;99.90
10911;DHT22;5508;49.150;11.030;2023-12-22T17:18:28;6.80;99.90
10911;DHT22;5508;49.150;11.030;2023-12-22T17:21:29;6.70;99.90
10911;DHT22;5508;49.150;11.030;2023-12-22T17:24:30;6.70;99.90
10911;DHT22;5508;49.150;11.030;2023-12-22T17:27:31;6.80;99.90
10911;DHT22;5508;49.150;11.030;2023-12-22T17:30:31;6.80;99.90
10911;DHT22;5508;49.150;11.030;2023-12-22T17:33:33;6.70;99.90
10911;DHT22;5508;49.150;11.030;2023-12-22T17:36:34;6.70;99.90
10911;DHT22;5508;49.150;11.030;2023-12-22T17:39:34;6.80;99.90
10911;DHT22;5508;49.150;11.030;2023-12-22T17:42:35;6.90;99.90
10911;DHT22;5508;49.150;11.030;2023-12-22T17:45:36;6.90;99.90
10911;DHT22;5508;49.150;11.030;2023-12-22T17:48:37;6.80;99.90
10911;DHT22;5508;49.150;11.030;2023-12-22T17:51:38;6.80;99.90
10911;DHT22;5508;49.150;11.030;2023-12-22T17:54:38;7.00;99.90
10911;DHT22;5508;49.150;11.030;2023-12-22T17:57:39;6.90;99.90
10911;DHT22;5508;49.150;11.030;2023-12-22T18:00:39;7.00;99.90
10911;DHT22;5508;49.150;11.030;2023-12-22T18:03:40;6.90;99.90
10911;DHT22;5508;49.150;11.030;2023-12-22T18:06:40;7.00;99.90
10911;DHT22;5508;49.150;11.030;2023-12-22T18:09:41;7.10;99.90
10911;DHT22;5508;49.150;11.030;2023-12-22T18:12:43;7.10;99.90
10911;DHT22;5508;49.150;11.030;2023-12-22T18:15:45;7.10;99.90
10911;DHT22;5508;49.150;11.030;2023-12-22T18:18:46;7.10;99.90
10911;DHT22;5508;49.150;11.030;2023-12-22T18:21:46;7.10;99.90
10911;DHT22;5508;49.150;11.030;2023-12-22T18:24:48;7.10;99.90
10911;DHT22;5508;49.150;11.030;2023-12-22T18:27:49;7.00;99.90
10911;DHT22;5508;49.150;11.030;2023-12-22T18:30:49;7.00;99.90
10911;DHT22;5508;49.150;11.030;2023-12-22T18:33:50;6.90;99.90
10911;DHT22;5508;49.150;11.030;2023-12-22T18:36:50;6.80;99.90
10911;DHT22;5508;49.150;11.030;2023-12-22T18:39:51;6.80;99.90
10911;DHT22;5508;49.150;11.030;2023-12-22T18:42:52;6.80;99.90
10911;DHT22;5508;49.150;11.030;2023-12-22T18:45:52;6.80;99.90
10911;DHT22;5508;49.150;11.030;2023-12-22T18:48:53;6.80;99.90
10911;DHT22;5508;49.150;11.030;2023-12-22T18:51:54;6.80;99.90
10911;DHT22;5508;49.150;11.030;2023-12-22T18:54:54;6.80;99.90
10911;DHT22;5508;49.150;11.030;2023-12-22T18:57:55;6.80;99.90
10911;DHT22;5508;49.150;11.030;2023-12-22T19:00:55;6.80;99.90
10911;DHT22;5508;49.150;11.030;2023-12-22T19:03:56;6.80;99.90
10911;DHT22;5508;49.150;11.030;2023-12-22T19:06:57;6.80;99.90
10911;DHT22;5508;49.150;11.030;2023-12-22T19:09:57;6.80;99.90
10911;DHT22;5508;49.150;11.030;2023-12-22T19:12:58;6.70;99.90
10911;DHT22;5508;49.150;11.030;2023-12-22T19:15:58;6.60;99.90
10911;DHT22;5508;49.150;11.030;2023-12-22T19:18:59;6.60;99.90
10911;DHT22;5508;49.150;11.030;2023-12-22T19:21:59;6.60;99.90
10911;DHT22;5508;49.150;11.030;2023-12-22T19:25:02;6.60;99.90